sensor_id;sensor_type;location;lat;lon;timestamp;temperature;humidity
490;DHT22;231;48.120;11.576;2023-07-24T02:17:23;17.50;34.20
490;DHT22;231;48.120;11.576;2023-07-24T02:19:50;17.50;34.70
490;DHT22;231;48.120;11.576;2023-07-24T02:22:17;17.60;34.70
490;DHT22;231;48.120;11.576;2023-07-24T02:24:44;17.60;33.70
490;DHT22;231;48.120;11.576;2023-07-24T02:27:12;17.70;34.90
490;DHT22;231;48.120;11.576;2023-07-24T02:29:39;17.80;35.20
490;DHT22;231;48.120;11.576;2023-07-24T02:32:07;17.80;35.10
490;DHT22;231;48.120;11.576;2023-07-24T02:34:35;17.80;34.30
490;DHT22;231;48.120;11.576;2023-07-24T02:37:02;17.80;33.70
490;DHT22;231;48.120;11.576;2023-07-24T02:39:29;17.80;33.80
490;DHT22;231;48.120;11.576;2023-07-24T02:41:56;17.90;33.60
490;DHT22;231;48.120;11.576;2023-07-24T02:44:23;18.00;32.90
490;DHT22;231;48.120;11.576;2023-07-24T02:46:50;18.20;30.30
490;DHT22;231;48.120;11.576;2023-07-24T02:49:16;18.40;28.90
490;DHT22;231;48.120;11.576;2023-07-24T02:51:45;18.50;27.60
490;DHT22;231;48.120;11.576;2023-07-24T02:54:11;18.50;26.70
490;DHT22;231;48.120;11.576;2023-07-24T02:56:38;18.60;27.30
490;DHT22;231;48.120;11.576;2023-07-24T02:59:05;18.60;26.70
490;DHT22;231;48.120;11.576;2023-07-24T03:01:32;18.60;26.50
490;DHT22;231;48.120;11.576;2023-07-24T03:03:59;18.60;26.30
490;DHT22;231;48.120;11.576;2023-07-24T03:06:26;18.80;26.30
490;DHT22;231;48.120;11.576;2023-07-24T03:08:54;19.00;25.30
490;DHT22;231;48.120;11.576;2023-07-24T03:11:21;19.20;23.90
490;DHT22;231;48.120;11.576;2023-07-24T03:13:48;19.40;49.50
490;DHT22;231;48.120;11.576;2023-07-24T03:16:14;19.10;67.40
490;DHT22;231;48.120;11.576;2023-07-24T03:18:42;18.60;80.10
490;DHT22;231;48.120;11.576;2023-07-24T03:21:09;18.10;91.20
490;DHT22;231;48.120;11.576;2023-07-24T03:23:36;17.90;96.50
490;DHT22;231;48.120;11.576;2023-07-24T03:26:04;17.70;99.90
490;DHT22;231;48.120;11.576;2023-07-24T03:28:31;17.50;99.90
490;DHT22;231;48.120;11.576;2023-07-24T03:30:58;17.40;99.90
490;DHT22;231;48.120;11.576;2023-07-24T03:33:24;17.30;99.90
490;DHT22;231;48.120;11.576;2023-07-24T03:35:51;17.20;99.90
490;DHT22;231;48.120;11.576;2023-07-24T03:38:18;17.10;99.90
490;DHT22;231;48.120;11.576;2023-07-24T03:40:45;17.10;99.90
490;DHT22;231;48.120;11.576;2023-07-24T03:43:14;17.00;99.90
490;DHT22;231;48.120;11.576;2023-07-24T03:45:41;17.00;99.90
490;DHT22;231;48.120;11.576;2023-07-24T03:48:09;17.00;99.90
490;DHT22;231;48.120;11.576;2023-07-24T03:50:36;17.00;99.90
490;DHT22;231;48.120;11.576;2023-07-24T03:53:02;17.00;99.90
490;DHT22;231;48.120;11.576;2023-07-24T03:55:29;16.90;99.90
490;DHT22;231;48.120;11.576;2023-07-24T03:57:56;16.90;99.90
490;DHT22;231;48.120;11.576;2023-07-24T04:00:24;16.90;99.90
490;DHT22;231;48.120;11.576;2023-07-24T04:02:51;16.80;99.90
490;DHT22;231;48.120;11.576;2023-07-24T04:05:18;16.80;99.90
490;DHT22;231;48.120;11.576;2023-07-24T04:07:45;16.80;99.90
490;DHT22;231;48.120;11.576;2023-07-24T04:10:11;16.80;99.90
490;DHT22;231;48.120;11.576;2023-07-24T04:12:38;17.00;99.90
490;DHT22;231;48.120;11.576;2023-07-24T04:15:06;17.10;99.90
490;DHT22;231;48.120;11.576;2023-07-24T04:17:35;17.20;99.90
490;DHT22;231;48.120;11.576;2023-07-24T04:20:01;17.30;99.90
490;DHT22;231;48.120;11.576;2023-07-24T04:22:28;17.30;99.90
490;DHT22;231;48.120;11.576;2023-07-24T04:24:55;17.30;99.90
490;DHT22;231;48.120;11.576;2023-07-24T04:27:22;17.40;99.90
490;DHT22;231;48.120;11.576;2023-07-24T04:29:50;17.30;99.90
490;DHT22;231;48.120;11.576;2023-07-24T04:32:16;17.40;99.90
490;DHT22;231;48.120;11.576;2023-07-24T04:34:45;17.40;99.90
490;DHT22;231;48.120;11.576;2023-07-24T04:37:11;17.40;99.90
490;DHT22;231;48.120;11.576;2023-07-24T04:39:38;17.40;99.90
490;DHT22;231;48.120;11.576;2023-07-24T04:42:06;17.40;99.90
490;DHT22;231;48.120;11.576;2023-07-24T04:44:32;17.40;99.90
490;DHT22;231;48.120;11.576;2023-07-24T04:46:59;17.50;99.90
490;DHT22;231;48.120;11.576;2023-07-24T04:49:28;17.50;99.90
490;DHT22;231;48.120;11.576;2023-07-24T04:51:57;17.40;99.90
490;DHT22;231;48.120;11.576;2023-07-24T04:54:24;17.40;99.90
490;DHT22;231;48.120;11.576;2023-07-24T04:56:51;17.40;99.90
490;DHT22;231;48.120;11.576;2023-07-24T04:59:17;17.40;99.90
490;DHT22;231;48.120;11.576;2023-07-24T05:01:44;17.40;99.90
490;DHT22;231;48.120;11.576;2023-07-24T05:04:11;17.60;99.90
490;DHT22;231;48.120;11.576;2023-07-24T05:06:38;17.70;99.90
490;DHT22;231;48.120;11.576;2023-07-24T05:09:06;17.80;99.90
490;DHT22;231;48.120;11.576;2023-07-24T05:11:33;17.80;99.90
490;DHT22;231;48.120;11.576;2023-07-24T05:14:00;17.90;99.90
490;DHT22;231;48.120;11.576;2023-07-24T05:16:27;18.00;99.90
490;DHT22;231;48.120;11.576;2023-07-24T05:18:55;18.10;99.90
490;DHT22;231;48.120;11.576;2023-07-24T05:21:22;18.10;99.90
490;DHT22;231;48.120;11.576;2023-07-24T05:23:49;18.20;99.90
490;DHT22;231;48.120;11.576;2023-07-24T05:26:17;18.20;99.90
490;DHT22;231;48.120;11.576;2023-07-24T05:28:44;18.30;99.90
490;DHT22;231;48.120;11.576;2023-07-24T05:31:11;18.30;99.90
490;DHT22;231;48.120;11.576;2023-07-24T05:33:38;18.30;99.90
490;DHT22;231;48.120;11.576;2023-07-24T05:36:05;18.30;99.90
490;DHT22;231;48.120;11.576;2023-07-24T05:38:32;18.40;99.90
490;DHT22;231;48.120;11.576;2023-07-24T05:41:00;18.50;99.90
490;DHT22;231;48.120;11.576;2023-07-24T05:43:30;18.60;99.90
490;DHT22;231;48.120;11.576;2023-07-24T05:45:59;18.70;99.90
490;DHT22;231;48.120;11.576;2023-07-24T05:48:26;19.10;99.90
490;DHT22;231;48.120;11.576;2023-07-24T05:50:53;19.70;99.90
490;DHT22;231;48.120;11.576;2023-07-24T05:53:20;20.10;99.90
490;DHT22;231;48.120;11.576;2023-07-24T05:55:47;20.10;99.90
490;DHT22;231;48.120;11.576;2023-07-24T05:58:14;20.20;99.90
490;DHT22;231;48.120;11.576;2023-07-24T06:00:42;21.00;99.90
490;DHT22;231;48.120;11.576;2023-07-24T06:03:09;22.00;99.90
490;DHT22;231;48.120;11.576;2023-07-24T06:05:36;23.10;99.90
490;DHT22;231;48.120;11.576;2023-07-24T06:08:03;24.10;99.90
490;DHT22;231;48.120;11.576;2023-07-24T06:10:30;25.10;99.90
490;DHT22;231;48.120;11.576;2023-07-24T06:12:57;26.00;99.90
490;DHT22;231;48.120;11.576;2023-07-24T06:15:24;26.50;99.90
490;DHT22;231;48.120;11.576;2023-07-24T06:17:52;26.70;99.90
490;DHT22;231;48.120;11.576;2023-07-24T06:20:19;26.20;63.30
490;DHT22;231;48.120;11.576;2023-07-24T06:22:46;25.60;60.30
490;DHT22;231;48.120;11.576;2023-07-24T06:25:13;25.10;75.20
490;DHT22;231;48.120;11.576;2023-07-24T06:27:40;25.10;99.90
490;DHT22;231;48.120;11.576;2023-07-24T06:30:07;25.70;99.90
490;DHT22;231;48.120;11.576;2023-07-24T06:32:34;26.30;99.90
490;DHT22;231;48.120;11.576;2023-07-24T06:35:02;27.50;99.90
490;DHT22;231;48.120;11.576;2023-07-24T06:37:29;28.40;99.90
490;DHT22;231;48.120;11.576;2023-07-24T06:39:56;29.00;77.50
490;DHT22;231;48.120;11.576;2023-07-24T06:42:23;30.10;99.90
490;DHT22;231;48.120;11.576;2023-07-24T06:44:50;30.90;98.00
490;DHT22;231;48.120;11.576;2023-07-24T06:47:17;32.00;99.90
490;DHT22;231;48.120;11.576;2023-07-24T06:49:44;32.50;82.70
490;DHT22;231;48.120;11.576;2023-07-24T06:52:14;33.30;39.60
490;DHT22;231;48.120;11.576;2023-07-24T06:54:40;33.60;67.30
490;DHT22;231;48.120;11.576;2023-07-24T06:57:07;34.20;44.70
490;DHT22;231;48.120;11.576;2023-07-24T06:59:35;34.80;32.10
490;DHT22;231;48.120;11.576;2023-07-24T07:02:02;35.40;19.80
490;DHT22;231;48.120;11.576;2023-07-24T07:04:29;36.70;1.00
490;DHT22;231;48.120;11.576;2023-07-24T07:06:55;37.30;1.00
490;DHT22;231;48.120;11.576;2023-07-24T07:09:24;38.00;1.00
490;DHT22;231;48.120;11.576;2023-07-24T07:11:50;39.10;1.00
490;DHT22;231;48.120;11.576;2023-07-24T07:14:17;40.20;1.00
490;DHT22;231;48.120;11.576;2023-07-24T07:16:44;41.40;1.00
490;DHT22;231;48.120;11.576;2023-07-24T07:19:13;42.60;1.00
490;DHT22;231;48.120;11.576;2023-07-24T07:21:43;42.70;1.00
490;DHT22;231;48.120;11.576;2023-07-24T07:24:11;42.60;1.00
490;DHT22;231;48.120;11.576;2023-07-24T07:26:44;41.90;1.00
490;DHT22;231;48.120;11.576;2023-07-24T07:29:11;40.70;1.00
490;DHT22;231;48.120;11.576;2023-07-24T07:31:39;39.30;1.00
490;DHT22;231;48.120;11.576;2023-07-24T07:34:06;38.10;1.00
490;DHT22;231;48.120;11.576;2023-07-24T07:36:33;37.00;1.00
490;DHT22;231;48.120;11.576;2023-07-24T07:39:00;35.70;1.00
490;DHT22;231;48.120;11.576;2023-07-24T07:41:27;34.20;1.00
490;DHT22;231;48.120;11.576;2023-07-24T07:43:56;32.70;1.00
490;DHT22;231;48.120;11.576;2023-07-24T07:46:23;30.70;6.10
490;DHT22;231;48.120;11.576;2023-07-24T07:48:51;28.70;11.90
490;DHT22;231;48.120;11.576;2023-07-24T07:51:18;27.20;18.40
490;DHT22;231;48.120;11.576;2023-07-24T07:53:45;26.00;24.70
490;DHT22;231;48.120;11.576;2023-07-24T07:56:11;25.10;28.20
490;DHT22;231;48.120;11.576;2023-07-24T07:58:38;24.40;33.80
490;DHT22;231;48.120;11.576;2023-07-24T08:01:07;23.90;42.40
490;DHT22;231;48.120;11.576;2023-07-24T08:03:33;23.60;45.60
490;DHT22;231;48.120;11.576;2023-07-24T08:06:00;23.30;46.70
490;DHT22;231;48.120;11.576;2023-07-24T08:08:27;23.20;60.30
490;DHT22;231;48.120;11.576;2023-07-24T08:10:54;23.00;75.70
490;DHT22;231;48.120;11.576;2023-07-24T08:13:21;22.80;93.40
490;DHT22;231;48.120;11.576;2023-07-24T08:15:49;22.80;99.90
490;DHT22;231;48.120;11.576;2023-07-24T13:33:05;24.10;35.00
490;DHT22;231;48.120;11.576;2023-07-24T13:36:22;23.60;41.30
490;DHT22;231;48.120;11.576;2023-07-24T13:39:01;23.20;54.40
490;DHT22;231;48.120;11.576;2023-07-24T14:05:40;23.20;99.90
490;DHT22;231;48.120;11.576;2023-07-24T14:08:08;23.50;99.90
490;DHT22;231;48.120;11.576;2023-07-24T14:10:55;23.60;99.90
490;DHT22;231;48.120;11.576;2023-07-24T15:39:49;23.50;94.80
490;DHT22;231;48.120;11.576;2023-07-24T15:42:16;23.40;95.80
490;DHT22;231;48.120;11.576;2023-07-24T15:44:46;23.30;96.70
490;DHT22;231;48.120;11.576;2023-07-24T15:47:13;23.20;96.70
490;DHT22;231;48.120;11.576;2023-07-24T15:49:45;23.20;97.60
490;DHT22;231;48.120;11.576;2023-07-24T15:52:20;23.30;99.90
490;DHT22;231;48.120;11.576;2023-07-24T15:55:02;23.40;99.90
490;DHT22;231;48.120;11.576;2023-07-24T15:57:36;23.60;99.90
490;DHT22;231;48.120;11.576;2023-07-24T16:00:21;23.90;99.90
490;DHT22;231;48.120;11.576;2023-07-24T16:02:53;24.10;99.90
490;DHT22;231;48.120;11.576;2023-07-24T16:05:33;24.40;96.70
490;DHT22;231;48.120;11.576;2023-07-24T16:08:08;24.70;95.60
490;DHT22;231;48.120;11.576;2023-07-24T16:10:38;24.90;79.50
490;DHT22;231;48.120;11.576;2023-07-24T16:13:16;25.20;39.30
490;DHT22;231;48.120;11.576;2023-07-24T16:15:49;25.60;28.50
490;DHT22;231;48.120;11.576;2023-07-24T16:18:20;25.60;35.70
490;DHT22;231;48.120;11.576;2023-07-24T16:20:47;25.20;28.90
490;DHT22;231;48.120;11.576;2023-07-24T16:23:14;24.70;26.90
490;DHT22;231;48.120;11.576;2023-07-24T16:25:43;24.20;26.00
490;DHT22;231;48.120;11.576;2023-07-24T16:28:09;23.70;26.40
490;DHT22;231;48.120;11.576;2023-07-24T16:30:36;23.40;28.10
490;DHT22;231;48.120;11.576;2023-07-24T16:33:03;23.10;29.20
490;DHT22;231;48.120;11.576;2023-07-24T16:38:49;22.80;50.00
490;DHT22;231;48.120;11.576;2023-07-24T16:41:21;22.40;64.30
490;DHT22;231;48.120;11.576;2023-07-24T16:43:48;22.00;73.80
490;DHT22;231;48.120;11.576;2023-07-24T16:46:15;21.70;90.20
490;DHT22;231;48.120;11.576;2023-07-24T16:48:44;21.50;99.90
490;DHT22;231;48.120;11.576;2023-07-24T16:51:15;21.20;99.90
490;DHT22;231;48.120;11.576;2023-07-24T16:53:46;20.90;99.90
490;DHT22;231;48.120;11.576;2023-07-24T16:56:16;20.70;99.90
490;DHT22;231;48.120;11.576;2023-07-24T16:58:45;20.50;99.90
490;DHT22;231;48.120;11.576;2023-07-24T17:01:12;20.30;99.90
490;DHT22;231;48.120;11.576;2023-07-24T17:03:42;20.20;99.90
490;DHT22;231;48.120;11.576;2023-07-24T17:06:10;20.10;99.90
490;DHT22;231;48.120;11.576;2023-07-24T17:08:37;20.00;99.90
490;DHT22;231;48.120;11.576;2023-07-24T17:11:04;20.00;99.90
490;DHT22;231;48.120;11.576;2023-07-24T17:13:31;19.70;99.90
490;DHT22;231;48.120;11.576;2023-07-24T17:16:01;19.50;99.90
490;DHT22;231;48.120;11.576;2023-07-24T17:18:28;19.40;99.90
490;DHT22;231;48.120;11.576;2023-07-24T17:20:55;19.40;99.90
490;DHT22;231;48.120;11.576;2023-07-24T17:23:21;19.30;99.90
490;DHT22;231;48.120;11.576;2023-07-24T17:25:49;19.30;99.90
490;DHT22;231;48.120;11.576;2023-07-24T17:28:16;19.20;99.90
490;DHT22;231;48.120;11.576;2023-07-24T17:30:43;19.20;99.90
490;DHT22;231;48.120;11.576;2023-07-24T17:33:11;19.20;99.90
490;DHT22;231;48.120;11.576;2023-07-24T17:35:38;19.20;99.90
490;DHT22;231;48.120;11.576;2023-07-24T17:38:05;19.10;99.90
490;DHT22;231;48.120;11.576;2023-07-24T17:40:32;19.20;99.90
490;DHT22;231;48.120;11.576;2023-07-24T17:43:02;19.20;99.90
490;DHT22;231;48.120;11.576;2023-07-24T17:45:29;19.30;99.90
490;DHT22;231;48.120;11.576;2023-07-24T17:47:56;19.30;99.90
490;DHT22;231;48.120;11.576;2023-07-24T17:50:24;19.30;99.90
490;DHT22;231;48.120;11.576;2023-07-24T17:52:51;19.30;99.90
490;DHT22;231;48.120;11.576;2023-07-24T17:55:18;19.20;99.90
490;DHT22;231;48.120;11.576;2023-07-24T17:57:45;19.20;99.90
490;DHT22;231;48.120;11.576;2023-07-24T18:00:16;19.20;99.90
490;DHT22;231;48.120;11.576;2023-07-24T18:02:43;19.20;99.90
490;DHT22;231;48.120;11.576;2023-07-24T18:05:10;19.20;99.90
490;DHT22;231;48.120;11.576;2023-07-24T18:07:39;19.20;99.90
490;DHT22;231;48.120;11.576;2023-07-24T18:10:07;19.30;99.90
490;DHT22;231;48.120;11.576;2023-07-24T18:12:34;19.30;99.90
490;DHT22;231;48.120;11.576;2023-07-24T18:15:03;19.20;99.90
490;DHT22;231;48.120;11.576;2023-07-24T18:17:30;19.20;99.90
490;DHT22;231;48.120;11.576;2023-07-24T18:19:57;19.30;99.90
490;DHT22;231;48.120;11.576;2023-07-24T18:22:24;19.20;99.90
490;DHT22;231;48.120;11.576;2023-07-24T18:24:55;19.10;99.90
490;DHT22;231;48.120;11.576;2023-07-24T18:27:22;19.10;99.90
490;DHT22;231;48.120;11.576;2023-07-24T18:29:49;19.00;99.90
490;DHT22;231;48.120;11.576;2023-07-24T18:32:16;19.00;99.90
490;DHT22;231;48.120;11.576;2023-07-24T18:34:43;19.00;99.90
490;DHT22;231;48.120;11.576;2023-07-24T18:37:10;19.00;99.90
490;DHT22;231;48.120;11.576;2023-07-24T18:39:37;19.00;99.90
490;DHT22;231;48.120;11.576;2023-07-24T18:42:06;19.10;99.90
490;DHT22;231;48.120;11.576;2023-07-24T18:44:33;19.10;99.90
490;DHT22;231;48.120;11.576;2023-07-24T18:47:00;19.10;99.90
490;DHT22;231;48.120;11.576;2023-07-24T18:49:27;19.10;99.90
490;DHT22;231;48.120;11.576;2023-07-24T18:51:54;19.10;99.90
490;DHT22;231;48.120;11.576;2023-07-24T18:54:21;19.00;99.90
490;DHT22;231;48.120;11.576;2023-07-24T18:56:50;19.00;99.90
490;DHT22;231;48.120;11.576;2023-07-24T18:59:18;18.90;99.90
490;DHT22;231;48.120;11.576;2023-07-24T19:01:46;18.90;99.90
490;DHT22;231;48.120;11.576;2023-07-24T19:04:13;18.80;99.90
490;DHT22;231;48.120;11.576;2023-07-24T19:06:43;18.80;99.90
490;DHT22;231;48.120;11.576;2023-07-24T19:09:10;18.90;99.90
490;DHT22;231;48.120;11.576;2023-07-24T19:11:37;18.90;99.90
490;DHT22;231;48.120;11.576;2023-07-24T19:14:05;19.00;99.90
490;DHT22;231;48.120;11.576;2023-07-24T19:16:33;19.00;99.90
490;DHT22;231;48.120;11.576;2023-07-24T19:19:00;19.00;99.90
490;DHT22;231;48.120;11.576;2023-07-24T19:21:29;19.00;99.90
490;DHT22;231;48.120;11.576;2023-07-24T19:23:56;19.00;99.90
490;DHT22;231;48.120;11.576;2023-07-24T19:26:23;19.00;99.90
490;DHT22;231;48.120;11.576;2023-07-24T19:28:50;19.00;99.90
490;DHT22;231;48.120;11.576;2023-07-24T19:31:17;19.00;99.90
490;DHT22;231;48.120;11.576;2023-07-24T19:33:45;19.10;99.90
490;DHT22;231;48.120;11.576;2023-07-24T19:36:12;19.10;99.90
490;DHT22;231;48.120;11.576;2023-07-24T19:38:39;19.10;99.90
490;DHT22;231;48.120;11.576;2023-07-24T19:41:06;19.10;99.90
490;DHT22;231;48.120;11.576;2023-07-24T19:43:33;19.10;99.90
490;DHT22;231;48.120;11.576;2023-07-24T19:46:04;19.10;99.90
490;DHT22;231;48.120;11.576;2023-07-24T19:48:35;19.10;99.90
490;DHT22;231;48.120;11.576;2023-07-24T19:51:03;19.10;99.90
490;DHT22;231;48.120;11.576;2023-07-24T19:53:31;19.10;99.90
490;DHT22;231;48.120;11.576;2023-07-24T19:55:58;19.10;99.90
490;DHT22;231;48.120;11.576;2023-07-24T19:58:29;19.10;99.90
490;DHT22;231;48.120;11.576;2023-07-24T20:01:01;19.00;99.90
490;DHT22;231;48.120;11.576;2023-07-24T20:03:28;18.90;99.90
490;DHT22;231;48.120;11.576;2023-07-24T20:05:57;18.80;99.90
490;DHT22;231;48.120;11.576;2023-07-24T20:08:26;18.70;99.90
490;DHT22;231;48.120;11.576;2023-07-24T20:10:55;18.70;99.90
490;DHT22;231;48.120;11.576;2023-07-24T20:13:22;18.60;99.90
490;DHT22;231;48.120;11.576;2023-07-24T20:15:49;18.60;99.90
490;DHT22;231;48.120;11.576;2023-07-24T20:18:16;18.50;99.90
490;DHT22;231;48.120;11.576;2023-07-24T20:20:46;18.40;99.90
490;DHT22;231;48.120;11.576;2023-07-24T20:23:14;18.40;99.90
490;DHT22;231;48.120;11.576;2023-07-24T20:25:47;18.40;99.90
490;DHT22;231;48.120;11.576;2023-07-24T20:28:15;18.40;99.90
490;DHT22;231;48.120;11.576;2023-07-24T20:30:43;18.40;99.90
490;DHT22;231;48.120;11.576;2023-07-24T20:33:10;18.30;99.90
490;DHT22;231;48.120;11.576;2023-07-24T20:35:37;18.30;99.90
490;DHT22;231;48.120;11.576;2023-07-24T20:38:04;18.30;99.90
490;DHT22;231;48.120;11.576;2023-07-24T20:40:32;18.40;99.90
490;DHT22;231;48.120;11.576;2023-07-24T20:43:01;18.40;99.90
490;DHT22;231;48.120;11.576;2023-07-24T20:45:28;18.40;99.90
490;DHT22;231;48.120;11.576;2023-07-24T20:47:55;18.40;99.90
490;DHT22;231;48.120;11.576;2023-07-24T20:50:21;18.40;99.90
490;DHT22;231;48.120;11.576;2023-07-24T20:52:48;18.40;99.90
490;DHT22;231;48.120;11.576;2023-07-24T20:55:15;18.40;99.90
490;DHT22;231;48.120;11.576;2023-07-24T20:57:42;18.40;99.90
490;DHT22;231;48.120;11.576;2023-07-24T21:00:11;18.40;99.90
490;DHT22;231;48.120;11.576;2023-07-24T21:02:38;18.40;99.90
490;DHT22;231;48.120;11.576;2023-07-24T21:05:06;18.40;99.90
490;DHT22;231;48.120;11.576;2023-07-24T21:07:33;18.40;99.90
490;DHT22;231;48.120;11.576;2023-07-24T21:10:00;18.30;99.90
490;DHT22;231;48.120;11.576;2023-07-24T21:12:27;18.30;99.90
490;DHT22;231;48.120;11.576;2023-07-24T21:14:55;18.30;99.90
490;DHT22;231;48.120;11.576;2023-07-24T21:17:23;18.30;99.90
490;DHT22;231;48.120;11.576;2023-07-24T21:19:50;18.30;99.90
490;DHT22;231;48.120;11.576;2023-07-24T21:22:17;18.30;99.90
490;DHT22;231;48.120;11.576;2023-07-24T21:24:44;18.30;99.90
490;DHT22;231;48.120;11.576;2023-07-24T21:27:11;18.30;99.90
490;DHT22;231;48.120;11.576;2023-07-24T21:29:38;18.30;99.90
490;DHT22;231;48.120;11.576;2023-07-24T21:32:06;18.40;99.90
490;DHT22;231;48.120;11.576;2023-07-24T21:34:34;18.30;99.90
490;DHT22;231;48.120;11.576;2023-07-24T21:37:01;18.30;99.90
490;DHT22;231;48.120;11.576;2023-07-24T21:39:29;18.30;99.90
490;DHT22;231;48.120;11.576;2023-07-24T21:41:56;18.30;99.90
490;DHT22;231;48.120;11.576;2023-07-24T21:44:22;18.30;99.90
490;DHT22;231;48.120;11.576;2023-07-24T21:46:49;18.30;99.90
490;DHT22;231;48.120;11.576;2023-07-24T21:49:16;18.30;99.90
490;DHT22;231;48.120;11.576;2023-07-24T21:51:45;18.30;99.90
490;DHT22;231;48.120;11.576;2023-07-24T21:54:11;18.30;99.90
490;DHT22;231;48.120;11.576;2023-07-24T21:56:38;18.30;99.90
490;DHT22;231;48.120;11.576;2023-07-24T21:59:05;18.30;99.90
490;DHT22;231;48.120;11.576;2023-07-24T22:01:32;18.30;99.90
490;DHT22;231;48.120;11.576;2023-07-24T22:03:59;18.30;99.90
490;DHT22;231;48.120;11.576;2023-07-24T22:06:27;18.30;99.90
490;DHT22;231;48.120;11.576;2023-07-24T22:08:55;18.30;99.90
490;DHT22;231;48.120;11.576;2023-07-24T22:11:22;18.30;99.90
490;DHT22;231;48.120;11.576;2023-07-24T22:13:50;18.30;99.90
490;DHT22;231;48.120;11.576;2023-07-24T22:16:17;18.30;99.90
490;DHT22;231;48.120;11.576;2023-07-24T22:18:44;18.30;99.90
490;DHT22;231;48.120;11.576;2023-07-24T22:21:11;18.30;99.90
490;DHT22;231;48.120;11.576;2023-07-24T22:23:38;18.30;99.90
490;DHT22;231;48.120;11.576;2023-07-24T22:26:06;18.30;99.90
490;DHT22;231;48.120;11.576;2023-07-24T22:28:33;18.30;99.90
490;DHT22;231;48.120;11.576;2023-07-24T22:31:07;18.20;99.90
490;DHT22;231;48.120;11.576;2023-07-24T22:33:34;18.10;99.90
490;DHT22;231;48.120;11.576;2023-07-24T22:36:02;18.10;99.90
490;DHT22;231;48.120;11.576;2023-07-24T22:38:29;18.10;99.90
490;DHT22;231;48.120;11.576;2023-07-24T22:40:56;18.10;99.90
490;DHT22;231;48.120;11.576;2023-07-24T22:43:25;18.00;99.90
490;DHT22;231;48.120;11.576;2023-07-24T22:45:51;18.00;99.90
490;DHT22;231;48.120;11.576;2023-07-24T22:48:18;18.00;99.90
490;DHT22;231;48.120;11.576;2023-07-24T22:50:45;17.90;99.90
490;DHT22;231;48.120;11.576;2023-07-24T22:53:12;17.90;99.90
490;DHT22;231;48.120;11.576;2023-07-24T22:55:39;17.90;99.90
490;DHT22;231;48.120;11.576;2023-07-24T22:58:06;17.80;99.90
490;DHT22;231;48.120;11.576;2023-07-24T23:00:34;17.80;99.90
490;DHT22;231;48.120;11.576;2023-07-24T23:03:01;17.80;99.90
490;DHT22;231;48.120;11.576;2023-07-24T23:05:28;17.80;99.90
490;DHT22;231;48.120;11.576;2023-07-24T23:07:56;17.80;99.90
490;DHT22;231;48.120;11.576;2023-07-24T23:10:23;17.70;99.90
490;DHT22;231;48.120;11.576;2023-07-24T23:12:50;17.70;99.90
490;DHT22;231;48.120;11.576;2023-07-24T23:15:17;17.70;99.90
490;DHT22;231;48.120;11.576;2023-07-24T23:17:45;17.60;99.90
490;DHT22;231;48.120;11.576;2023-07-24T23:20:12;17.60;99.90
490;DHT22;231;48.120;11.576;2023-07-24T23:22:39;17.50;99.90
490;DHT22;231;48.120;11.576;2023-07-24T23:25:07;17.50;99.90
490;DHT22;231;48.120;11.576;2023-07-24T23:27:33;17.40;99.90
490;DHT22;231;48.120;11.576;2023-07-24T23:30:01;17.40;99.90
490;DHT22;231;48.120;11.576;2023-07-24T23:32:27;17.40;99.90
490;DHT22;231;48.120;11.576;2023-07-24T23:34:56;17.40;99.90
490;DHT22;231;48.120;11.576;2023-07-24T23:37:22;17.40;99.90
490;DHT22;231;48.120;11.576;2023-07-24T23:39:49;17.40;99.90
490;DHT22;231;48.120;11.576;2023-07-24T23:42:16;17.30;99.90
490;DHT22;231;48.120;11.576;2023-07-24T23:44:43;17.30;99.90
490;DHT22;231;48.120;11.576;2023-07-24T23:47:10;17.30;99.90
490;DHT22;231;48.120;11.576;2023-07-24T23:49:37;17.30;99.90
490;DHT22;231;48.120;11.576;2023-07-24T23:52:06;17.30;99.90
490;DHT22;231;48.120;11.576;2023-07-24T23:54:33;17.30;99.90
490;DHT22;231;48.120;11.576;2023-07-24T23:57:00;17.20;99.90
490;DHT22;231;48.120;11.576;2023-07-24T23:59:27;17.20;99.90
